sensor_id;sensor_type;location;lat;lon;timestamp;P1;durP1;ratioP1;P2;durP2;ratioP2
40945;SDS011;55635;50.264;11.918;2023-05-07T00:00:03;54.08;;;32.85;;
40945;SDS011;55635;50.264;11.918;2023-05-07T00:02:48;51.15;;;31.23;;
40945;SDS011;55635;50.264;11.918;2023-05-07T00:05:29;52.88;;;32.33;;
40945;SDS011;55635;50.264;11.918;2023-05-07T00:08:10;43.80;;;29.10;;
40945;SDS011;55635;50.264;11.918;2023-05-07T00:10:51;49.13;;;30.85;;
40945;SDS011;55635;50.264;11.918;2023-05-07T00:13:32;49.78;;;31.17;;
40945;SDS011;55635;50.264;11.918;2023-05-07T00:16:21;55.57;;;32.10;;
40945;SDS011;55635;50.264;11.918;2023-05-07T00:19:02;50.03;;;31.48;;
40945;SDS011;55635;50.264;11.918;2023-05-07T00:21:44;51.42;;;31.00;;
40945;SDS011;55635;50.264;11.918;2023-05-07T00:24:25;48.13;;;29.83;;
40945;SDS011;55635;50.264;11.918;2023-05-07T00:27:06;49.25;;;30.02;;
40945;SDS011;55635;50.264;11.918;2023-05-07T00:29:47;43.33;;;28.67;;
40945;SDS011;55635;50.264;11.918;2023-05-07T00:32:29;53.28;;;33.33;;
40945;SDS011;55635;50.264;11.918;2023-05-07T00:35:10;48.85;;;30.45;;
40945;SDS011;55635;50.264;11.918;2023-05-07T00:37:51;53.10;;;32.30;;
40945;SDS011;55635;50.264;11.918;2023-05-07T00:40:32;49.17;;;30.90;;
40945;SDS011;55635;50.264;11.918;2023-05-07T00:43:13;44.47;;;29.00;;
40945;SDS011;55635;50.264;11.918;2023-05-07T00:45:55;60.22;;;31.42;;
40945;SDS011;55635;50.264;11.918;2023-05-07T00:48:36;73.40;;;33.08;;
40945;SDS011;55635;50.264;11.918;2023-05-07T00:51:17;85.80;;;34.75;;
40945;SDS011;55635;50.264;11.918;2023-05-07T00:53:59;47.38;;;30.90;;
40945;SDS011;55635;50.264;11.918;2023-05-07T00:56:42;56.67;;;32.83;;
40945;SDS011;55635;50.264;11.918;2023-05-07T00:59:23;57.92;;;32.88;;
40945;SDS011;55635;50.264;11.918;2023-05-07T01:02:05;51.38;;;29.73;;
40945;SDS011;55635;50.264;11.918;2023-05-07T01:04:46;40.05;;;27.33;;
40945;SDS011;55635;50.264;11.918;2023-05-07T01:07:27;48.30;;;30.23;;
40945;SDS011;55635;50.264;11.918;2023-05-07T01:10:08;47.47;;;29.88;;
40945;SDS011;55635;50.264;11.918;2023-05-07T01:12:50;50.85;;;30.45;;
40945;SDS011;55635;50.264;11.918;2023-05-07T01:15:34;53.75;;;29.63;;
40945;SDS011;55635;50.264;11.918;2023-05-07T01:18:15;55.88;;;28.50;;
40945;SDS011;55635;50.264;11.918;2023-05-07T01:20:59;61.63;;;32.28;;
40945;SDS011;55635;50.264;11.918;2023-05-07T01:23:44;43.92;;;26.63;;
40945;SDS011;55635;50.264;11.918;2023-05-07T01:26:26;104.38;;;30.80;;
40945;SDS011;55635;50.264;11.918;2023-05-07T01:29:09;50.38;;;28.25;;
40945;SDS011;55635;50.264;11.918;2023-05-07T01:31:53;57.72;;;30.70;;
40945;SDS011;55635;50.264;11.918;2023-05-07T01:34:40;41.25;;;25.60;;
40945;SDS011;55635;50.264;11.918;2023-05-07T01:37:48;54.88;;;28.08;;
40945;SDS011;55635;50.264;11.918;2023-05-07T01:40:29;45.92;;;27.42;;
40945;SDS011;55635;50.264;11.918;2023-05-07T01:43:12;56.40;;;27.58;;
40945;SDS011;55635;50.264;11.918;2023-05-07T01:45:59;64.22;;;26.05;;
40945;SDS011;55635;50.264;11.918;2023-05-07T01:48:41;76.10;;;27.98;;
40945;SDS011;55635;50.264;11.918;2023-05-07T01:51:26;100.38;;;28.98;;
40945;SDS011;55635;50.264;11.918;2023-05-07T01:54:07;51.92;;;27.23;;
40945;SDS011;55635;50.264;11.918;2023-05-07T01:56:48;94.03;;;28.27;;
40945;SDS011;55635;50.264;11.918;2023-05-07T01:59:30;82.00;;;28.77;;
40945;SDS011;55635;50.264;11.918;2023-05-07T02:02:14;47.55;;;26.85;;
40945;SDS011;55635;50.264;11.918;2023-05-07T02:04:57;73.88;;;28.35;;
40945;SDS011;55635;50.264;11.918;2023-05-07T02:07:40;98.03;;;26.70;;
40945;SDS011;55635;50.264;11.918;2023-05-07T02:10:21;111.90;;;28.25;;
40945;SDS011;55635;50.264;11.918;2023-05-07T02:13:03;67.50;;;24.42;;
40945;SDS011;55635;50.264;11.918;2023-05-07T02:15:46;109.97;;;28.75;;
40945;SDS011;55635;50.264;11.918;2023-05-07T02:18:31;161.57;;;31.60;;
40945;SDS011;55635;50.264;11.918;2023-05-07T02:21:13;177.13;;;32.30;;
40945;SDS011;55635;50.264;11.918;2023-05-07T02:23:54;50.80;;;25.70;;
40945;SDS011;55635;50.264;11.918;2023-05-07T02:26:35;47.75;;;25.45;;
40945;SDS011;55635;50.264;11.918;2023-05-07T02:29:17;44.15;;;24.42;;
40945;SDS011;55635;50.264;11.918;2023-05-07T02:31:59;115.10;;;26.80;;
40945;SDS011;55635;50.264;11.918;2023-05-07T02:34:40;106.93;;;26.55;;
40945;SDS011;55635;50.264;11.918;2023-05-07T02:37:21;149.70;;;31.13;;
40945;SDS011;55635;50.264;11.918;2023-05-07T02:40:02;111.75;;;27.08;;
40945;SDS011;55635;50.264;11.918;2023-05-07T02:42:45;36.72;;;23.90;;
40945;SDS011;55635;50.264;11.918;2023-05-07T02:45:26;34.60;;;23.00;;
40945;SDS011;55635;50.264;11.918;2023-05-07T02:48:08;70.10;;;25.98;;
40945;SDS011;55635;50.264;11.918;2023-05-07T02:50:50;49.33;;;25.17;;
40945;SDS011;55635;50.264;11.918;2023-05-07T02:53:31;85.50;;;28.08;;
40945;SDS011;55635;50.264;11.918;2023-05-07T02:56:11;53.28;;;24.63;;
40945;SDS011;55635;50.264;11.918;2023-05-07T02:58:52;47.65;;;25.92;;
40945;SDS011;55635;50.264;11.918;2023-05-07T03:01:35;75.55;;;27.15;;
40945;SDS011;55635;50.264;11.918;2023-05-07T03:04:22;61.85;;;25.67;;
40945;SDS011;55635;50.264;11.918;2023-05-07T03:07:08;61.97;;;24.95;;
40945;SDS011;55635;50.264;11.918;2023-05-07T03:09:49;51.88;;;24.23;;
40945;SDS011;55635;50.264;11.918;2023-05-07T03:12:30;36.78;;;25.15;;
40945;SDS011;55635;50.264;11.918;2023-05-07T03:15:13;39.38;;;24.45;;
40945;SDS011;55635;50.264;11.918;2023-05-07T03:17:53;44.80;;;25.42;;
40945;SDS011;55635;50.264;11.918;2023-05-07T03:20:34;52.10;;;25.27;;
40945;SDS011;55635;50.264;11.918;2023-05-07T03:23:16;41.60;;;25.15;;
40945;SDS011;55635;50.264;11.918;2023-05-07T03:25:57;40.60;;;24.85;;
40945;SDS011;55635;50.264;11.918;2023-05-07T03:28:38;84.85;;;27.40;;
40945;SDS011;55635;50.264;11.918;2023-05-07T03:31:23;66.68;;;25.85;;
40945;SDS011;55635;50.264;11.918;2023-05-07T03:34:06;49.05;;;25.20;;
40945;SDS011;55635;50.264;11.918;2023-05-07T03:36:49;62.22;;;26.35;;
40945;SDS011;55635;50.264;11.918;2023-05-07T03:39:30;107.40;;;28.98;;
40945;SDS011;55635;50.264;11.918;2023-05-07T03:42:12;91.72;;;29.13;;
40945;SDS011;55635;50.264;11.918;2023-05-07T03:44:53;75.57;;;28.58;;
40945;SDS011;55635;50.264;11.918;2023-05-07T03:47:35;50.47;;;28.65;;
40945;SDS011;55635;50.264;11.918;2023-05-07T03:50:16;52.80;;;28.55;;
40945;SDS011;55635;50.264;11.918;2023-05-07T03:52:57;54.70;;;28.08;;
40945;SDS011;55635;50.264;11.918;2023-05-07T03:55:42;54.28;;;29.08;;
40945;SDS011;55635;50.264;11.918;2023-05-07T03:58:23;54.83;;;30.45;;
40945;SDS011;55635;50.264;11.918;2023-05-07T04:01:30;56.13;;;29.85;;
40945;SDS011;55635;50.264;11.918;2023-05-07T04:04:12;51.50;;;29.58;;
40945;SDS011;55635;50.264;11.918;2023-05-07T04:06:53;42.95;;;28.55;;
40945;SDS011;55635;50.264;11.918;2023-05-07T04:09:36;52.45;;;31.27;;
40945;SDS011;55635;50.264;11.918;2023-05-07T04:12:16;54.72;;;30.42;;
40945;SDS011;55635;50.264;11.918;2023-05-07T04:14:57;47.83;;;29.30;;
40945;SDS011;55635;50.264;11.918;2023-05-07T04:17:38;47.50;;;28.13;;
40945;SDS011;55635;50.264;11.918;2023-05-07T04:20:22;49.58;;;29.45;;
40945;SDS011;55635;50.264;11.918;2023-05-07T04:23:10;46.78;;;29.00;;
40945;SDS011;55635;50.264;11.918;2023-05-07T04:25:52;45.78;;;27.80;;
40945;SDS011;55635;50.264;11.918;2023-05-07T04:28:38;45.40;;;28.58;;
40945;SDS011;55635;50.264;11.918;2023-05-07T04:31:21;42.65;;;26.13;;
40945;SDS011;55635;50.264;11.918;2023-05-07T04:34:05;48.22;;;27.67;;
40945;SDS011;55635;50.264;11.918;2023-05-07T04:36:57;47.33;;;28.90;;
40945;SDS011;55635;50.264;11.918;2023-05-07T04:39:39;49.38;;;28.27;;
40945;SDS011;55635;50.264;11.918;2023-05-07T04:42:21;44.10;;;26.23;;
40945;SDS011;55635;50.264;11.918;2023-05-07T04:45:04;41.67;;;26.67;;
40945;SDS011;55635;50.264;11.918;2023-05-07T04:47:48;45.05;;;27.02;;
40945;SDS011;55635;50.264;11.918;2023-05-07T04:50:30;44.95;;;26.80;;
40945;SDS011;55635;50.264;11.918;2023-05-07T04:53:15;44.55;;;27.48;;
40945;SDS011;55635;50.264;11.918;2023-05-07T04:55:57;45.25;;;27.90;;
40945;SDS011;55635;50.264;11.918;2023-05-07T04:58:44;48.67;;;28.70;;
40945;SDS011;55635;50.264;11.918;2023-05-07T05:01:26;41.80;;;25.88;;
40945;SDS011;55635;50.264;11.918;2023-05-07T05:04:07;43.75;;;26.23;;
40945;SDS011;55635;50.264;11.918;2023-05-07T05:06:54;43.40;;;26.63;;
40945;SDS011;55635;50.264;11.918;2023-05-07T05:09:35;44.00;;;26.67;;
40945;SDS011;55635;50.264;11.918;2023-05-07T05:12:17;43.95;;;27.52;;
40945;SDS011;55635;50.264;11.918;2023-05-07T05:14:58;44.47;;;26.75;;
40945;SDS011;55635;50.264;11.918;2023-05-07T05:17:39;43.50;;;27.13;;
40945;SDS011;55635;50.264;11.918;2023-05-07T05:20:21;42.70;;;27.23;;
40945;SDS011;55635;50.264;11.918;2023-05-07T05:23:03;47.17;;;27.45;;
40945;SDS011;55635;50.264;11.918;2023-05-07T05:25:45;42.10;;;27.17;;
40945;SDS011;55635;50.264;11.918;2023-05-07T05:28:28;43.70;;;27.27;;
40945;SDS011;55635;50.264;11.918;2023-05-07T05:31:09;47.47;;;27.58;;
40945;SDS011;55635;50.264;11.918;2023-05-07T05:33:50;44.03;;;27.35;;
40945;SDS011;55635;50.264;11.918;2023-05-07T05:36:31;39.35;;;26.13;;
40945;SDS011;55635;50.264;11.918;2023-05-07T05:39:13;38.45;;;24.98;;
40945;SDS011;55635;50.264;11.918;2023-05-07T05:41:54;46.20;;;27.42;;
40945;SDS011;55635;50.264;11.918;2023-05-07T05:44:35;41.05;;;25.85;;
40945;SDS011;55635;50.264;11.918;2023-05-07T05:47:18;42.22;;;25.85;;
40945;SDS011;55635;50.264;11.918;2023-05-07T05:49:59;44.22;;;25.58;;
40945;SDS011;55635;50.264;11.918;2023-05-07T05:52:40;41.67;;;26.52;;
40945;SDS011;55635;50.264;11.918;2023-05-07T05:55:21;37.92;;;23.75;;
40945;SDS011;55635;50.264;11.918;2023-05-07T05:58:02;39.75;;;25.80;;
40945;SDS011;55635;50.264;11.918;2023-05-07T06:00:47;39.33;;;25.13;;
40945;SDS011;55635;50.264;11.918;2023-05-07T06:03:29;42.70;;;25.25;;
40945;SDS011;55635;50.264;11.918;2023-05-07T06:06:14;34.83;;;22.67;;
40945;SDS011;55635;50.264;11.918;2023-05-07T06:08:57;36.70;;;24.77;;
40945;SDS011;55635;50.264;11.918;2023-05-07T06:11:44;42.83;;;24.92;;
40945;SDS011;55635;50.264;11.918;2023-05-07T06:14:26;42.25;;;26.20;;
40945;SDS011;55635;50.264;11.918;2023-05-07T06:17:09;36.47;;;23.55;;
40945;SDS011;55635;50.264;11.918;2023-05-07T06:19:51;36.28;;;23.27;;
40945;SDS011;55635;50.264;11.918;2023-05-07T06:22:34;35.15;;;22.88;;
40945;SDS011;55635;50.264;11.918;2023-05-07T06:25:15;37.83;;;23.13;;
40945;SDS011;55635;50.264;11.918;2023-05-07T06:27:57;38.08;;;23.30;;
40945;SDS011;55635;50.264;11.918;2023-05-07T06:30:41;34.63;;;22.70;;
40945;SDS011;55635;50.264;11.918;2023-05-07T06:33:22;33.20;;;22.55;;
40945;SDS011;55635;50.264;11.918;2023-05-07T06:36:03;33.83;;;22.65;;
40945;SDS011;55635;50.264;11.918;2023-05-07T06:38:49;31.58;;;21.90;;
40945;SDS011;55635;50.264;11.918;2023-05-07T06:41:30;31.40;;;22.35;;
40945;SDS011;55635;50.264;11.918;2023-05-07T06:44:15;31.80;;;20.80;;
40945;SDS011;55635;50.264;11.918;2023-05-07T06:47:01;29.58;;;20.08;;
40945;SDS011;55635;50.264;11.918;2023-05-07T06:49:43;31.17;;;20.88;;
40945;SDS011;55635;50.264;11.918;2023-05-07T06:52:27;31.38;;;21.30;;
40945;SDS011;55635;50.264;11.918;2023-05-07T06:55:09;30.50;;;20.60;;
40945;SDS011;55635;50.264;11.918;2023-05-07T06:57:51;30.50;;;20.10;;
40945;SDS011;55635;50.264;11.918;2023-05-07T07:00:36;30.42;;;19.75;;
40945;SDS011;55635;50.264;11.918;2023-05-07T07:03:17;27.05;;;19.23;;
40945;SDS011;55635;50.264;11.918;2023-05-07T07:05:58;30.65;;;20.85;;
40945;SDS011;55635;50.264;11.918;2023-05-07T07:08:41;32.10;;;21.27;;
40945;SDS011;55635;50.264;11.918;2023-05-07T07:11:24;28.73;;;19.60;;
40945;SDS011;55635;50.264;11.918;2023-05-07T07:14:09;26.30;;;18.75;;
40945;SDS011;55635;50.264;11.918;2023-05-07T07:16:58;28.30;;;18.92;;
40945;SDS011;55635;50.264;11.918;2023-05-07T07:19:39;28.25;;;19.05;;
40945;SDS011;55635;50.264;11.918;2023-05-07T07:22:20;26.58;;;18.58;;
40945;SDS011;55635;50.264;11.918;2023-05-07T07:25:01;24.80;;;17.58;;
40945;SDS011;55635;50.264;11.918;2023-05-07T07:27:43;25.05;;;17.27;;
40945;SDS011;55635;50.264;11.918;2023-05-07T07:30:28;27.17;;;17.42;;
40945;SDS011;55635;50.264;11.918;2023-05-07T07:33:10;25.40;;;18.02;;
40945;SDS011;55635;50.264;11.918;2023-05-07T07:35:52;25.85;;;17.13;;
40945;SDS011;55635;50.264;11.918;2023-05-07T07:38:35;28.73;;;18.77;;
40945;SDS011;55635;50.264;11.918;2023-05-07T07:41:17;28.05;;;17.50;;
40945;SDS011;55635;50.264;11.918;2023-05-07T07:43:58;24.50;;;17.67;;
40945;SDS011;55635;50.264;11.918;2023-05-07T07:46:39;24.77;;;17.77;;
40945;SDS011;55635;50.264;11.918;2023-05-07T07:49:21;25.75;;;18.42;;
40945;SDS011;55635;50.264;11.918;2023-05-07T07:52:03;23.35;;;16.42;;
40945;SDS011;55635;50.264;11.918;2023-05-07T07:54:46;23.90;;;16.90;;
40945;SDS011;55635;50.264;11.918;2023-05-07T07:57:27;25.67;;;16.52;;
40945;SDS011;55635;50.264;11.918;2023-05-07T08:00:09;25.33;;;16.17;;
40945;SDS011;55635;50.264;11.918;2023-05-07T08:03:15;21.75;;;16.40;;
40945;SDS011;55635;50.264;11.918;2023-05-07T08:06:00;25.77;;;16.48;;
40945;SDS011;55635;50.264;11.918;2023-05-07T08:08:41;21.15;;;14.68;;
40945;SDS011;55635;50.264;11.918;2023-05-07T08:11:22;22.08;;;15.75;;
40945;SDS011;55635;50.264;11.918;2023-05-07T08:14:05;21.73;;;15.98;;
40945;SDS011;55635;50.264;11.918;2023-05-07T08:16:46;21.90;;;15.93;;
40945;SDS011;55635;50.264;11.918;2023-05-07T08:19:27;23.25;;;14.80;;
40945;SDS011;55635;50.264;11.918;2023-05-07T08:22:09;19.95;;;14.52;;
40945;SDS011;55635;50.264;11.918;2023-05-07T08:24:51;20.30;;;15.77;;
40945;SDS011;55635;50.264;11.918;2023-05-07T08:27:35;22.40;;;15.23;;
40945;SDS011;55635;50.264;11.918;2023-05-07T08:30:18;20.63;;;14.25;;
40945;SDS011;55635;50.264;11.918;2023-05-07T08:33:01;21.55;;;14.40;;
40945;SDS011;55635;50.264;11.918;2023-05-07T08:35:42;20.50;;;14.95;;
40945;SDS011;55635;50.264;11.918;2023-05-07T08:38:25;19.55;;;14.73;;
40945;SDS011;55635;50.264;11.918;2023-05-07T08:41:06;20.48;;;14.43;;
40945;SDS011;55635;50.264;11.918;2023-05-07T08:43:50;18.60;;;13.18;;
40945;SDS011;55635;50.264;11.918;2023-05-07T08:46:32;19.08;;;13.15;;
40945;SDS011;55635;50.264;11.918;2023-05-07T08:49:14;16.85;;;13.32;;
40945;SDS011;55635;50.264;11.918;2023-05-07T08:51:56;18.58;;;13.07;;
40945;SDS011;55635;50.264;11.918;2023-05-07T08:54:44;19.52;;;14.68;;
40945;SDS011;55635;50.264;11.918;2023-05-07T08:57:25;22.25;;;13.60;;
40945;SDS011;55635;50.264;11.918;2023-05-07T09:00:12;17.85;;;12.98;;
40945;SDS011;55635;50.264;11.918;2023-05-07T09:02:57;408.33;;;57.60;;
40945;SDS011;55635;50.264;11.918;2023-05-07T09:05:39;18.27;;;13.07;;
40945;SDS011;55635;50.264;11.918;2023-05-07T09:08:24;15.95;;;11.68;;
40945;SDS011;55635;50.264;11.918;2023-05-07T09:11:08;17.67;;;13.05;;
40945;SDS011;55635;50.264;11.918;2023-05-07T09:13:57;14.93;;;11.77;;
40945;SDS011;55635;50.264;11.918;2023-05-07T09:16:42;14.73;;;11.85;;
40945;SDS011;55635;50.264;11.918;2023-05-07T09:19:28;15.48;;;11.60;;
40945;SDS011;55635;50.264;11.918;2023-05-07T09:22:14;13.77;;;11.25;;
40945;SDS011;55635;50.264;11.918;2023-05-07T09:25:08;16.52;;;11.20;;
40945;SDS011;55635;50.264;11.918;2023-05-07T09:27:51;14.25;;;10.88;;
40945;SDS011;55635;50.264;11.918;2023-05-07T09:30:33;12.48;;;10.48;;
40945;SDS011;55635;50.264;11.918;2023-05-07T09:33:20;14.50;;;10.95;;
40945;SDS011;55635;50.264;11.918;2023-05-07T09:36:05;13.85;;;10.98;;
40945;SDS011;55635;50.264;11.918;2023-05-07T09:38:49;14.07;;;10.55;;
40945;SDS011;55635;50.264;11.918;2023-05-07T09:41:31;14.13;;;9.65;;
40945;SDS011;55635;50.264;11.918;2023-05-07T09:44:22;12.55;;;10.25;;
40945;SDS011;55635;50.264;11.918;2023-05-07T09:47:07;13.38;;;10.63;;
40945;SDS011;55635;50.264;11.918;2023-05-07T09:49:57;13.07;;;9.63;;
40945;SDS011;55635;50.264;11.918;2023-05-07T09:52:46;11.07;;;9.63;;
40945;SDS011;55635;50.264;11.918;2023-05-07T09:55:31;479.45;;;74.40;;
40945;SDS011;55635;50.264;11.918;2023-05-07T09:58:14;13.25;;;9.07;;
40945;SDS011;55635;50.264;11.918;2023-05-07T10:00:58;13.63;;;9.55;;
40945;SDS011;55635;50.264;11.918;2023-05-07T10:03:41;10.82;;;8.45;;
40945;SDS011;55635;50.264;11.918;2023-05-07T10:06:25;9.30;;;8.07;;
40945;SDS011;55635;50.264;11.918;2023-05-07T10:09:06;9.85;;;8.55;;
40945;SDS011;55635;50.264;11.918;2023-05-07T10:11:48;10.48;;;8.80;;
40945;SDS011;55635;50.264;11.918;2023-05-07T10:14:30;9.65;;;7.80;;
40945;SDS011;55635;50.264;11.918;2023-05-07T10:17:12;8.77;;;7.88;;
40945;SDS011;55635;50.264;11.918;2023-05-07T10:19:56;9.80;;;7.95;;
40945;SDS011;55635;50.264;11.918;2023-05-07T10:22:39;10.30;;;8.05;;
40945;SDS011;55635;50.264;11.918;2023-05-07T10:28:12;10.77;;;7.53;;
40945;SDS011;55635;50.264;11.918;2023-05-07T10:34:09;9.63;;;8.27;;
40945;SDS011;55635;50.264;11.918;2023-05-07T10:37:00;9.77;;;8.32;;
40945;SDS011;55635;50.264;11.918;2023-05-07T10:39:43;10.15;;;8.23;;
40945;SDS011;55635;50.264;11.918;2023-05-07T10:42:25;12.05;;;9.40;;
40945;SDS011;55635;50.264;11.918;2023-05-07T10:45:15;9.65;;;8.10;;
40945;SDS011;55635;50.264;11.918;2023-05-07T10:48:10;10.15;;;8.57;;
40945;SDS011;55635;50.264;11.918;2023-05-07T10:50:52;8.48;;;7.07;;
40945;SDS011;55635;50.264;11.918;2023-05-07T10:57:03;8.48;;;7.45;;
40945;SDS011;55635;50.264;11.918;2023-05-07T11:00:41;8.15;;;7.35;;
40945;SDS011;55635;50.264;11.918;2023-05-07T11:03:27;9.32;;;7.57;;
40945;SDS011;55635;50.264;11.918;2023-05-07T11:06:15;10.57;;;7.85;;
40945;SDS011;55635;50.264;11.918;2023-05-07T11:09:19;9.23;;;8.20;;
40945;SDS011;55635;50.264;11.918;2023-05-07T11:12:09;9.88;;;7.80;;
40945;SDS011;55635;50.264;11.918;2023-05-07T11:15:09;8.23;;;7.43;;
40945;SDS011;55635;50.264;11.918;2023-05-07T11:17:53;8.00;;;7.20;;
40945;SDS011;55635;50.264;11.918;2023-05-07T11:26:43;9.85;;;7.82;;
40945;SDS011;55635;50.264;11.918;2023-05-07T11:29:28;9.20;;;8.15;;
40945;SDS011;55635;50.264;11.918;2023-05-07T11:32:38;9.00;;;8.10;;
40945;SDS011;55635;50.264;11.918;2023-05-07T11:35:22;8.63;;;7.72;;
40945;SDS011;55635;50.264;11.918;2023-05-07T11:38:05;9.85;;;8.40;;
40945;SDS011;55635;50.264;11.918;2023-05-07T11:40:52;7.57;;;6.97;;
40945;SDS011;55635;50.264;11.918;2023-05-07T11:43:35;8.40;;;7.60;;
40945;SDS011;55635;50.264;11.918;2023-05-07T11:46:19;7.65;;;6.95;;
40945;SDS011;55635;50.264;11.918;2023-05-07T11:49:00;8.38;;;7.22;;
40945;SDS011;55635;50.264;11.918;2023-05-07T11:51:41;8.32;;;7.55;;
40945;SDS011;55635;50.264;11.918;2023-05-07T11:54:23;7.70;;;7.05;;
40945;SDS011;55635;50.264;11.918;2023-05-07T11:57:04;7.40;;;6.70;;
40945;SDS011;55635;50.264;11.918;2023-05-07T11:59:45;8.45;;;7.55;;
40945;SDS011;55635;50.264;11.918;2023-05-07T12:02:28;7.53;;;6.82;;
40945;SDS011;55635;50.264;11.918;2023-05-07T12:05:09;7.93;;;6.95;;
40945;SDS011;55635;50.264;11.918;2023-05-07T12:07:55;7.18;;;6.47;;
40945;SDS011;55635;50.264;11.918;2023-05-07T12:10:40;8.10;;;7.30;;
40945;SDS011;55635;50.264;11.918;2023-05-07T12:13:23;7.93;;;6.57;;
40945;SDS011;55635;50.264;11.918;2023-05-07T12:16:06;10.02;;;7.43;;
40945;SDS011;55635;50.264;11.918;2023-05-07T12:18:50;7.30;;;6.57;;
40945;SDS011;55635;50.264;11.918;2023-05-07T12:21:34;7.15;;;6.45;;
40945;SDS011;55635;50.264;11.918;2023-05-07T12:24:17;7.47;;;6.78;;
40945;SDS011;55635;50.264;11.918;2023-05-07T12:26:59;6.75;;;6.15;;
40945;SDS011;55635;50.264;11.918;2023-05-07T12:29:44;6.93;;;6.22;;
40945;SDS011;55635;50.264;11.918;2023-05-07T12:32:27;7.40;;;5.80;;
40945;SDS011;55635;50.264;11.918;2023-05-07T12:35:08;7.78;;;7.00;;
40945;SDS011;55635;50.264;11.918;2023-05-07T12:37:56;7.15;;;6.45;;
40945;SDS011;55635;50.264;11.918;2023-05-07T12:40:44;7.50;;;6.13;;
40945;SDS011;55635;50.264;11.918;2023-05-07T12:43:30;7.30;;;5.78;;
40945;SDS011;55635;50.264;11.918;2023-05-07T12:46:11;7.03;;;6.43;;
40945;SDS011;55635;50.264;11.918;2023-05-07T12:48:58;6.07;;;5.47;;
40945;SDS011;55635;50.264;11.918;2023-05-07T12:51:39;6.65;;;6.15;;
40945;SDS011;55635;50.264;11.918;2023-05-07T12:54:33;6.00;;;5.50;;
40945;SDS011;55635;50.264;11.918;2023-05-07T12:57:19;6.40;;;5.80;;
40945;SDS011;55635;50.264;11.918;2023-05-07T13:00:00;5.40;;;5.00;;
40945;SDS011;55635;50.264;11.918;2023-05-07T13:02:42;6.18;;;5.63;;
40945;SDS011;55635;50.264;11.918;2023-05-07T13:05:27;6.28;;;5.78;;
40945;SDS011;55635;50.264;11.918;2023-05-07T13:08:22;6.15;;;5.63;;
40945;SDS011;55635;50.264;11.918;2023-05-07T13:11:17;6.30;;;5.70;;
40945;SDS011;55635;50.264;11.918;2023-05-07T13:13:58;5.63;;;5.10;;
40945;SDS011;55635;50.264;11.918;2023-05-07T13:16:39;6.75;;;5.90;;
40945;SDS011;55635;50.264;11.918;2023-05-07T13:19:21;6.00;;;5.50;;
40945;SDS011;55635;50.264;11.918;2023-05-07T13:22:03;5.68;;;5.18;;
40945;SDS011;55635;50.264;11.918;2023-05-07T13:24:44;6.10;;;5.50;;
40945;SDS011;55635;50.264;11.918;2023-05-07T13:27:24;5.20;;;4.70;;
40945;SDS011;55635;50.264;11.918;2023-05-07T13:30:06;7.60;;;5.32;;
40945;SDS011;55635;50.264;11.918;2023-05-07T13:32:47;6.00;;;4.43;;
40945;SDS011;55635;50.264;11.918;2023-05-07T13:35:29;5.18;;;4.70;;
40945;SDS011;55635;50.264;11.918;2023-05-07T13:38:10;4.93;;;4.53;;
40945;SDS011;55635;50.264;11.918;2023-05-07T13:40:51;5.43;;;4.78;;
40945;SDS011;55635;50.264;11.918;2023-05-07T13:43:32;4.72;;;4.30;;
40945;SDS011;55635;50.264;11.918;2023-05-07T13:46:15;4.90;;;4.50;;
40945;SDS011;55635;50.264;11.918;2023-05-07T13:48:56;5.10;;;4.60;;
40945;SDS011;55635;50.264;11.918;2023-05-07T13:51:37;5.03;;;3.97;;
40945;SDS011;55635;50.264;11.918;2023-05-07T13:54:19;5.70;;;4.70;;
40945;SDS011;55635;50.264;11.918;2023-05-07T13:56:59;5.45;;;4.60;;
40945;SDS011;55635;50.264;11.918;2023-05-07T13:59:42;5.03;;;4.55;;
40945;SDS011;55635;50.264;11.918;2023-05-07T14:02:47;5.25;;;4.32;;
40945;SDS011;55635;50.264;11.918;2023-05-07T14:05:28;5.05;;;4.55;;
40945;SDS011;55635;50.264;11.918;2023-05-07T14:08:09;6.40;;;5.47;;
40945;SDS011;55635;50.264;11.918;2023-05-07T14:10:51;5.38;;;4.88;;
40945;SDS011;55635;50.264;11.918;2023-05-07T14:13:31;4.53;;;4.13;;
40945;SDS011;55635;50.264;11.918;2023-05-07T14:16:15;4.40;;;4.00;;
40945;SDS011;55635;50.264;11.918;2023-05-07T14:18:56;5.43;;;4.43;;
40945;SDS011;55635;50.264;11.918;2023-05-07T14:21:37;4.65;;;4.22;;
40945;SDS011;55635;50.264;11.918;2023-05-07T14:24:18;4.57;;;4.18;;
40945;SDS011;55635;50.264;11.918;2023-05-07T14:26:59;4.05;;;3.75;;
40945;SDS011;55635;50.264;11.918;2023-05-07T14:29:40;4.40;;;3.78;;
40945;SDS011;55635;50.264;11.918;2023-05-07T14:32:22;4.75;;;4.35;;
40945;SDS011;55635;50.264;11.918;2023-05-07T14:35:03;4.07;;;3.65;;
40945;SDS011;55635;50.264;11.918;2023-05-07T14:37:44;4.63;;;4.32;;
40945;SDS011;55635;50.264;11.918;2023-05-07T14:40:25;6.15;;;4.38;;
40945;SDS011;55635;50.264;11.918;2023-05-07T14:43:06;4.55;;;4.15;;
40945;SDS011;55635;50.264;11.918;2023-05-07T14:45:47;4.93;;;4.43;;
40945;SDS011;55635;50.264;11.918;2023-05-07T14:48:28;4.60;;;4.20;;
40945;SDS011;55635;50.264;11.918;2023-05-07T14:51:12;4.60;;;4.30;;
40945;SDS011;55635;50.264;11.918;2023-05-07T14:53:53;4.65;;;4.20;;
40945;SDS011;55635;50.264;11.918;2023-05-07T14:56:34;4.57;;;4.18;;
40945;SDS011;55635;50.264;11.918;2023-05-07T14:59:15;4.22;;;3.80;;
40945;SDS011;55635;50.264;11.918;2023-05-07T15:02:00;4.68;;;4.28;;
40945;SDS011;55635;50.264;11.918;2023-05-07T15:04:41;3.63;;;3.42;;
40945;SDS011;55635;50.264;11.918;2023-05-07T15:07:25;3.92;;;3.53;;
40945;SDS011;55635;50.264;11.918;2023-05-07T15:10:07;3.65;;;3.35;;
40945;SDS011;55635;50.264;11.918;2023-05-07T15:12:51;4.38;;;4.07;;
40945;SDS011;55635;50.264;11.918;2023-05-07T15:15:32;4.20;;;3.90;;
40945;SDS011;55635;50.264;11.918;2023-05-07T15:18:13;4.22;;;3.92;;
40945;SDS011;55635;50.264;11.918;2023-05-07T15:20:55;4.10;;;3.80;;
40945;SDS011;55635;50.264;11.918;2023-05-07T15:23:37;4.90;;;4.15;;
40945;SDS011;55635;50.264;11.918;2023-05-07T15:26:18;3.97;;;3.67;;
40945;SDS011;55635;50.264;11.918;2023-05-07T15:29:00;4.10;;;3.65;;
40945;SDS011;55635;50.264;11.918;2023-05-07T15:31:43;3.83;;;3.53;;
40945;SDS011;55635;50.264;11.918;2023-05-07T15:34:24;7.55;;;5.78;;
40945;SDS011;55635;50.264;11.918;2023-05-07T15:37:07;15.07;;;11.75;;
40945;SDS011;55635;50.264;11.918;2023-05-07T15:39:48;4.57;;;4.18;;
40945;SDS011;55635;50.264;11.918;2023-05-07T15:42:30;4.90;;;4.38;;
40945;SDS011;55635;50.264;11.918;2023-05-07T15:45:11;4.32;;;3.92;;
40945;SDS011;55635;50.264;11.918;2023-05-07T15:47:52;4.32;;;3.92;;
40945;SDS011;55635;50.264;11.918;2023-05-07T15:50:33;5.43;;;4.93;;
40945;SDS011;55635;50.264;11.918;2023-05-07T15:53:13;4.88;;;4.47;;
40945;SDS011;55635;50.264;11.918;2023-05-07T15:55:54;4.97;;;4.43;;
40945;SDS011;55635;50.264;11.918;2023-05-07T15:58:35;3.80;;;3.60;;
40945;SDS011;55635;50.264;11.918;2023-05-07T16:01:17;5.28;;;4.80;;
40945;SDS011;55635;50.264;11.918;2023-05-07T16:03:58;5.30;;;4.85;;
40945;SDS011;55635;50.264;11.918;2023-05-07T16:06:39;13.60;;;12.20;;